sensor_id;sensor_type;location;lat;lon;timestamp;P1;durP1;ratioP1;P2;durP2;ratioP2
72404;SDS011;60395;52.020;113.548;2024-02-15T00:01:42;10.20;;;3.47;;
72404;SDS011;60395;52.020;113.548;2024-02-15T00:04:45;11.43;;;3.17;;
72404;SDS011;60395;52.020;113.548;2024-02-15T00:10:52;28.93;;;9.57;;
72404;SDS011;60395;52.020;113.548;2024-02-15T00:16:59;10.23;;;6.65;;
72404;SDS011;60395;52.020;113.548;2024-02-15T00:20:03;13.23;;;6.37;;
72404;SDS011;60395;52.020;113.548;2024-02-15T00:23:12;15.00;;;9.07;;
72404;SDS011;60395;52.020;113.548;2024-02-15T00:26:15;14.30;;;6.07;;
72404;SDS011;60395;52.020;113.548;2024-02-15T00:29:19;46.30;;;19.27;;
72404;SDS011;60395;52.020;113.548;2024-02-15T00:32:22;38.10;;;16.67;;
72404;SDS011;60395;52.020;113.548;2024-02-15T00:35:26;23.13;;;7.87;;
72404;SDS011;60395;52.020;113.548;2024-02-15T00:38:33;8.57;;;3.23;;
72404;SDS011;60395;52.020;113.548;2024-02-15T00:41:37;16.70;;;6.70;;
72404;SDS011;60395;52.020;113.548;2024-02-15T00:44:44;12.63;;;5.70;;
72404;SDS011;60395;52.020;113.548;2024-02-15T00:47:47;13.98;;;6.50;;
72404;SDS011;60395;52.020;113.548;2024-02-15T00:50:51;15.60;;;9.65;;
72404;SDS011;60395;52.020;113.548;2024-02-15T00:56:58;76.93;;;17.27;;
72404;SDS011;60395;52.020;113.548;2024-02-15T01:00:02;16.38;;;6.80;;
72404;SDS011;60395;52.020;113.548;2024-02-15T01:03:06;54.07;;;18.33;;
72404;SDS011;60395;52.020;113.548;2024-02-15T01:09:13;32.43;;;10.87;;
72404;SDS011;60395;52.020;113.548;2024-02-15T01:12:17;30.53;;;14.87;;
72404;SDS011;60395;52.020;113.548;2024-02-15T01:15:20;6.80;;;5.60;;
72404;SDS011;60395;52.020;113.548;2024-02-15T01:18:24;22.90;;;13.00;;
72404;SDS011;60395;52.020;113.548;2024-02-15T01:21:30;26.23;;;8.67;;
72404;SDS011;60395;52.020;113.548;2024-02-15T01:24:35;45.43;;;14.33;;
72404;SDS011;60395;52.020;113.548;2024-02-15T01:27:39;16.48;;;8.80;;
72404;SDS011;60395;52.020;113.548;2024-02-15T01:30:43;17.57;;;9.27;;
72404;SDS011;60395;52.020;113.548;2024-02-15T01:33:48;54.17;;;13.30;;
72404;SDS011;60395;52.020;113.548;2024-02-15T01:39:55;25.10;;;12.37;;
72404;SDS011;60395;52.020;113.548;2024-02-15T01:42:58;25.83;;;9.80;;
72404;SDS011;60395;52.020;113.548;2024-02-15T01:46:08;23.07;;;10.23;;
72404;SDS011;60395;52.020;113.548;2024-02-15T01:49:13;64.93;;;22.80;;
72404;SDS011;60395;52.020;113.548;2024-02-15T01:52:18;45.10;;;16.83;;
72404;SDS011;60395;52.020;113.548;2024-02-15T01:55:22;45.72;;;13.52;;
72404;SDS011;60395;52.020;113.548;2024-02-15T01:58:28;47.93;;;15.20;;
72404;SDS011;60395;52.020;113.548;2024-02-15T02:01:34;78.10;;;25.17;;
72404;SDS011;60395;52.020;113.548;2024-02-15T02:04:38;28.73;;;12.57;;
72404;SDS011;60395;52.020;113.548;2024-02-15T02:07:42;38.93;;;15.60;;
72404;SDS011;60395;52.020;113.548;2024-02-15T02:10:46;25.58;;;13.27;;
72404;SDS011;60395;52.020;113.548;2024-02-15T02:13:49;19.35;;;10.32;;
72404;SDS011;60395;52.020;113.548;2024-02-15T02:16:54;34.63;;;14.75;;
72404;SDS011;60395;52.020;113.548;2024-02-15T02:19:57;45.25;;;12.75;;
72404;SDS011;60395;52.020;113.548;2024-02-15T02:23:08;31.15;;;14.65;;
72404;SDS011;60395;52.020;113.548;2024-02-15T02:26:16;21.23;;;11.00;;
72404;SDS011;60395;52.020;113.548;2024-02-15T02:29:19;19.45;;;12.02;;
72404;SDS011;60395;52.020;113.548;2024-02-15T02:32:23;30.88;;;12.43;;
72404;SDS011;60395;52.020;113.548;2024-02-15T02:35:29;35.80;;;13.77;;
72404;SDS011;60395;52.020;113.548;2024-02-15T02:38:35;29.33;;;12.90;;
72404;SDS011;60395;52.020;113.548;2024-02-15T02:41:40;17.67;;;9.07;;
72404;SDS011;60395;52.020;113.548;2024-02-15T02:44:44;43.90;;;16.10;;
72404;SDS011;60395;52.020;113.548;2024-02-15T02:47:50;28.98;;;13.10;;
72404;SDS011;60395;52.020;113.548;2024-02-15T02:50:57;33.38;;;12.60;;
72404;SDS011;60395;52.020;113.548;2024-02-15T02:54:00;25.60;;;11.50;;
72404;SDS011;60395;52.020;113.548;2024-02-15T02:57:07;26.08;;;11.95;;
72404;SDS011;60395;52.020;113.548;2024-02-15T03:00:11;26.80;;;10.80;;
72404;SDS011;60395;52.020;113.548;2024-02-15T03:03:18;26.23;;;9.40;;
72404;SDS011;60395;52.020;113.548;2024-02-15T03:06:28;30.40;;;10.93;;
72404;SDS011;60395;52.020;113.548;2024-02-15T03:09:31;16.45;;;10.48;;
72404;SDS011;60395;52.020;113.548;2024-02-15T03:12:36;17.67;;;8.85;;
72404;SDS011;60395;52.020;113.548;2024-02-15T03:18:44;18.03;;;9.97;;
72404;SDS011;60395;52.020;113.548;2024-02-15T03:21:47;34.20;;;14.82;;
72404;SDS011;60395;52.020;113.548;2024-02-15T03:24:51;38.30;;;16.65;;
72404;SDS011;60395;52.020;113.548;2024-02-15T03:27:58;38.58;;;18.17;;
72404;SDS011;60395;52.020;113.548;2024-02-15T03:31:05;44.63;;;15.77;;
72404;SDS011;60395;52.020;113.548;2024-02-15T03:34:09;59.55;;;21.38;;
72404;SDS011;60395;52.020;113.548;2024-02-15T03:37:13;52.30;;;20.25;;
72404;SDS011;60395;52.020;113.548;2024-02-15T03:40:17;55.42;;;21.15;;
72404;SDS011;60395;52.020;113.548;2024-02-15T03:43:21;61.35;;;22.05;;
72404;SDS011;60395;52.020;113.548;2024-02-15T03:46:26;65.75;;;22.40;;
72404;SDS011;60395;52.020;113.548;2024-02-15T03:49:29;57.13;;;20.70;;
72404;SDS011;60395;52.020;113.548;2024-02-15T03:52:34;48.30;;;16.50;;
72404;SDS011;60395;52.020;113.548;2024-02-15T03:55:38;56.63;;;20.33;;
72404;SDS011;60395;52.020;113.548;2024-02-15T03:58:41;64.28;;;18.77;;
72404;SDS011;60395;52.020;113.548;2024-02-15T04:01:45;31.33;;;11.60;;
72404;SDS011;60395;52.020;113.548;2024-02-15T04:04:49;15.90;;;4.88;;
72404;SDS011;60395;52.020;113.548;2024-02-15T04:07:55;16.77;;;3.35;;
72404;SDS011;60395;52.020;113.548;2024-02-15T04:10:59;16.60;;;3.65;;
72404;SDS011;60395;52.020;113.548;2024-02-15T04:14:02;20.88;;;5.47;;
72404;SDS011;60395;52.020;113.548;2024-02-15T04:17:09;8.85;;;3.47;;
72404;SDS011;60395;52.020;113.548;2024-02-15T04:20:13;19.20;;;4.53;;
72404;SDS011;60395;52.020;113.548;2024-02-15T04:23:18;7.80;;;3.70;;
72404;SDS011;60395;52.020;113.548;2024-02-15T04:26:22;15.57;;;4.57;;
72404;SDS011;60395;52.020;113.548;2024-02-15T04:29:29;9.32;;;3.63;;
72404;SDS011;60395;52.020;113.548;2024-02-15T04:32:32;23.63;;;6.38;;
72404;SDS011;60395;52.020;113.548;2024-02-15T04:35:36;15.45;;;5.70;;
72404;SDS011;60395;52.020;113.548;2024-02-15T04:38:40;13.02;;;5.32;;
72404;SDS011;60395;52.020;113.548;2024-02-15T04:41:43;8.87;;;4.47;;
72404;SDS011;60395;52.020;113.548;2024-02-15T04:44:49;25.23;;;6.88;;
72404;SDS011;60395;52.020;113.548;2024-02-15T04:47:56;17.95;;;4.70;;
72404;SDS011;60395;52.020;113.548;2024-02-15T04:51:04;8.77;;;4.30;;
72404;SDS011;60395;52.020;113.548;2024-02-15T04:54:08;14.52;;;6.03;;
72404;SDS011;60395;52.020;113.548;2024-02-15T04:57:15;14.68;;;6.38;;
72404;SDS011;60395;52.020;113.548;2024-02-15T05:00:21;20.42;;;6.65;;
72404;SDS011;60395;52.020;113.548;2024-02-15T05:03:25;11.70;;;4.85;;
72404;SDS011;60395;52.020;113.548;2024-02-15T05:06:29;14.70;;;6.07;;
72404;SDS011;60395;52.020;113.548;2024-02-15T05:09:35;8.02;;;3.80;;
72404;SDS011;60395;52.020;113.548;2024-02-15T05:12:38;14.55;;;5.18;;
72404;SDS011;60395;52.020;113.548;2024-02-15T05:15:50;10.07;;;4.20;;
72404;SDS011;60395;52.020;113.548;2024-02-15T05:18:54;11.13;;;3.50;;
72404;SDS011;60395;52.020;113.548;2024-02-15T05:21:57;10.52;;;3.65;;
72404;SDS011;60395;52.020;113.548;2024-02-15T05:25:01;9.40;;;3.47;;
72404;SDS011;60395;52.020;113.548;2024-02-15T05:28:08;8.57;;;3.08;;
72404;SDS011;60395;52.020;113.548;2024-02-15T05:31:15;14.43;;;4.90;;
72404;SDS011;60395;52.020;113.548;2024-02-15T05:34:27;10.90;;;3.90;;
72404;SDS011;60395;52.020;113.548;2024-02-15T05:37:32;13.40;;;5.05;;
72404;SDS011;60395;52.020;113.548;2024-02-15T05:40:37;17.92;;;5.70;;
72404;SDS011;60395;52.020;113.548;2024-02-15T05:43:40;17.90;;;5.97;;
72404;SDS011;60395;52.020;113.548;2024-02-15T05:46:44;22.08;;;7.50;;
72404;SDS011;60395;52.020;113.548;2024-02-15T05:49:48;24.60;;;8.85;;
72404;SDS011;60395;52.020;113.548;2024-02-15T05:52:52;18.02;;;7.20;;
72404;SDS011;60395;52.020;113.548;2024-02-15T05:55:57;79.15;;;6.13;;
72404;SDS011;60395;52.020;113.548;2024-02-15T05:59:01;13.38;;;4.93;;
72404;SDS011;60395;52.020;113.548;2024-02-15T06:02:12;12.93;;;4.38;;
72404;SDS011;60395;52.020;113.548;2024-02-15T06:05:16;14.90;;;3.90;;
72404;SDS011;60395;52.020;113.548;2024-02-15T06:08:19;6.82;;;3.67;;
72404;SDS011;60395;52.020;113.548;2024-02-15T06:11:25;11.50;;;3.30;;
72404;SDS011;60395;52.020;113.548;2024-02-15T06:14:29;8.87;;;3.07;;
72404;SDS011;60395;52.020;113.548;2024-02-15T06:17:32;6.10;;;2.10;;
72404;SDS011;60395;52.020;113.548;2024-02-15T06:20:36;8.07;;;3.22;;
72404;SDS011;60395;52.020;113.548;2024-02-15T06:23:41;13.52;;;3.45;;
72404;SDS011;60395;52.020;113.548;2024-02-15T06:26:45;5.07;;;2.50;;
72404;SDS011;60395;52.020;113.548;2024-02-15T06:29:54;8.40;;;3.42;;
72404;SDS011;60395;52.020;113.548;2024-02-15T06:33:16;15.38;;;4.72;;
72404;SDS011;60395;52.020;113.548;2024-02-15T06:36:49;10.93;;;3.55;;
72404;SDS011;60395;52.020;113.548;2024-02-15T06:40:13;7.43;;;3.15;;
72404;SDS011;60395;52.020;113.548;2024-02-15T06:43:17;8.47;;;3.13;;
72404;SDS011;60395;52.020;113.548;2024-02-15T06:46:20;9.57;;;4.22;;
72404;SDS011;60395;52.020;113.548;2024-02-15T06:49:24;11.68;;;4.13;;
72404;SDS011;60395;52.020;113.548;2024-02-15T06:52:31;16.60;;;4.03;;
72404;SDS011;60395;52.020;113.548;2024-02-15T06:55:37;23.30;;;6.25;;
72404;SDS011;60395;52.020;113.548;2024-02-15T06:58:42;22.08;;;7.05;;
72404;SDS011;60395;52.020;113.548;2024-02-15T07:01:45;15.70;;;6.27;;
72404;SDS011;60395;52.020;113.548;2024-02-15T07:04:49;9.25;;;4.72;;
72404;SDS011;60395;52.020;113.548;2024-02-15T07:07:54;10.13;;;3.50;;
72404;SDS011;60395;52.020;113.548;2024-02-15T07:10:59;5.38;;;2.65;;
72404;SDS011;60395;52.020;113.548;2024-02-15T07:14:04;13.88;;;4.40;;
72404;SDS011;60395;52.020;113.548;2024-02-15T07:17:09;12.88;;;5.28;;
72404;SDS011;60395;52.020;113.548;2024-02-15T07:20:13;14.32;;;4.00;;
72404;SDS011;60395;52.020;113.548;2024-02-15T07:23:19;19.02;;;4.80;;
72404;SDS011;60395;52.020;113.548;2024-02-15T07:26:26;14.65;;;4.07;;
72404;SDS011;60395;52.020;113.548;2024-02-15T07:29:30;8.95;;;3.60;;
72404;SDS011;60395;52.020;113.548;2024-02-15T07:32:36;8.93;;;3.83;;
72404;SDS011;60395;52.020;113.548;2024-02-15T07:35:41;9.23;;;3.20;;
72404;SDS011;60395;52.020;113.548;2024-02-15T07:38:48;10.60;;;4.15;;
72404;SDS011;60395;52.020;113.548;2024-02-15T07:41:56;12.50;;;3.85;;
72404;SDS011;60395;52.020;113.548;2024-02-15T07:45:07;7.88;;;3.42;;
72404;SDS011;60395;52.020;113.548;2024-02-15T07:48:14;11.10;;;4.25;;
72404;SDS011;60395;52.020;113.548;2024-02-15T07:51:19;13.05;;;4.10;;
72404;SDS011;60395;52.020;113.548;2024-02-15T07:54:25;7.25;;;2.97;;
72404;SDS011;60395;52.020;113.548;2024-02-15T07:57:33;8.25;;;2.80;;
72404;SDS011;60395;52.020;113.548;2024-02-15T08:00:37;4.88;;;2.03;;
72404;SDS011;60395;52.020;113.548;2024-02-15T08:03:44;9.05;;;2.30;;
72404;SDS011;60395;52.020;113.548;2024-02-15T08:09:51;13.35;;;5.18;;
72404;SDS011;60395;52.020;113.548;2024-02-15T08:12:56;5.18;;;2.03;;
72404;SDS011;60395;52.020;113.548;2024-02-15T08:16:06;10.88;;;2.88;;
72404;SDS011;60395;52.020;113.548;2024-02-15T08:19:13;7.65;;;2.80;;
72404;SDS011;60395;52.020;113.548;2024-02-15T08:22:17;4.45;;;2.03;;
72404;SDS011;60395;52.020;113.548;2024-02-15T08:25:26;7.03;;;2.47;;
72404;SDS011;60395;52.020;113.548;2024-02-15T08:28:29;9.82;;;2.92;;
72404;SDS011;60395;52.020;113.548;2024-02-15T08:31:33;33.07;;;10.97;;
72404;SDS011;60395;52.020;113.548;2024-02-15T08:34:39;44.95;;;12.38;;
72404;SDS011;60395;52.020;113.548;2024-02-15T08:37:43;30.80;;;12.38;;
72404;SDS011;60395;52.020;113.548;2024-02-15T08:40:51;28.98;;;12.07;;
72404;SDS011;60395;52.020;113.548;2024-02-15T08:43:55;21.75;;;8.95;;
72404;SDS011;60395;52.020;113.548;2024-02-15T08:47:05;15.95;;;5.78;;
72404;SDS011;60395;52.020;113.548;2024-02-15T08:50:09;15.63;;;5.68;;
72404;SDS011;60395;52.020;113.548;2024-02-15T08:53:15;13.93;;;5.15;;
72404;SDS011;60395;52.020;113.548;2024-02-15T08:56:26;13.10;;;4.43;;
72404;SDS011;60395;52.020;113.548;2024-02-15T08:59:30;11.13;;;3.53;;
72404;SDS011;60395;52.020;113.548;2024-02-15T09:02:36;5.25;;;2.78;;
72404;SDS011;60395;52.020;113.548;2024-02-15T09:05:40;14.00;;;5.72;;
72404;SDS011;60395;52.020;113.548;2024-02-15T09:08:44;23.75;;;9.32;;
72404;SDS011;60395;52.020;113.548;2024-02-15T09:11:50;16.63;;;6.65;;
72404;SDS011;60395;52.020;113.548;2024-02-15T09:14:54;8.68;;;3.88;;
72404;SDS011;60395;52.020;113.548;2024-02-15T09:17:58;6.00;;;2.75;;
72404;SDS011;60395;52.020;113.548;2024-02-15T09:21:02;9.80;;;3.95;;
72404;SDS011;60395;52.020;113.548;2024-02-15T09:24:08;8.48;;;2.70;;
72404;SDS011;60395;52.020;113.548;2024-02-15T09:27:14;14.10;;;3.20;;
72404;SDS011;60395;52.020;113.548;2024-02-15T09:30:18;11.65;;;2.58;;
72404;SDS011;60395;52.020;113.548;2024-02-15T09:33:21;15.38;;;4.03;;
72404;SDS011;60395;52.020;113.548;2024-02-15T09:36:26;8.48;;;2.33;;
72404;SDS011;60395;52.020;113.548;2024-02-15T09:42:34;5.45;;;1.88;;
72404;SDS011;60395;52.020;113.548;2024-02-15T09:45:38;2.08;;;0.98;;
72404;SDS011;60395;52.020;113.548;2024-02-15T09:48:42;3.28;;;1.52;;
72404;SDS011;60395;52.020;113.548;2024-02-15T09:51:53;3.33;;;1.70;;
72404;SDS011;60395;52.020;113.548;2024-02-15T09:54:58;2.88;;;1.17;;
72404;SDS011;60395;52.020;113.548;2024-02-15T09:58:05;5.93;;;2.08;;
72404;SDS011;60395;52.020;113.548;2024-02-15T10:01:09;13.57;;;1.90;;
72404;SDS011;60395;52.020;113.548;2024-02-15T10:04:15;28.10;;;3.10;;
72404;SDS011;60395;52.020;113.548;2024-02-15T10:07:19;2.72;;;1.08;;
72404;SDS011;60395;52.020;113.548;2024-02-15T10:10:24;3.72;;;1.48;;
72404;SDS011;60395;52.020;113.548;2024-02-15T10:13:32;6.97;;;1.48;;
72404;SDS011;60395;52.020;113.548;2024-02-15T10:16:42;2.83;;;1.48;;
72404;SDS011;60395;52.020;113.548;2024-02-15T10:23:09;3.55;;;1.13;;
72404;SDS011;60395;52.020;113.548;2024-02-15T10:26:20;2.78;;;1.15;;
72404;SDS011;60395;52.020;113.548;2024-02-15T10:29:26;3.15;;;1.10;;
72404;SDS011;60395;52.020;113.548;2024-02-15T10:32:35;3.22;;;1.58;;
72404;SDS011;60395;52.020;113.548;2024-02-15T10:35:39;2.78;;;0.90;;
72404;SDS011;60395;52.020;113.548;2024-02-15T10:38:46;4.43;;;1.80;;
72404;SDS011;60395;52.020;113.548;2024-02-15T10:41:50;7.30;;;1.95;;
72404;SDS011;60395;52.020;113.548;2024-02-15T10:45:01;2.58;;;1.45;;
72404;SDS011;60395;52.020;113.548;2024-02-15T10:48:17;5.72;;;2.42;;
72404;SDS011;60395;52.020;113.548;2024-02-15T10:51:21;6.88;;;2.28;;
72404;SDS011;60395;52.020;113.548;2024-02-15T10:57:49;14.43;;;4.63;;
72404;SDS011;60395;52.020;113.548;2024-02-15T11:00:55;7.57;;;3.28;;
72404;SDS011;60395;52.020;113.548;2024-02-15T11:04:00;13.75;;;4.28;;
72404;SDS011;60395;52.020;113.548;2024-02-15T11:07:08;12.10;;;3.72;;
72404;SDS011;60395;52.020;113.548;2024-02-15T11:10:14;10.07;;;4.25;;
72404;SDS011;60395;52.020;113.548;2024-02-15T11:13:19;15.23;;;3.90;;
72404;SDS011;60395;52.020;113.548;2024-02-15T11:16:42;19.17;;;4.82;;
72404;SDS011;60395;52.020;113.548;2024-02-15T11:19:48;9.82;;;3.70;;
72404;SDS011;60395;52.020;113.548;2024-02-15T11:22:58;21.80;;;5.50;;
72404;SDS011;60395;52.020;113.548;2024-02-15T11:26:03;12.52;;;5.85;;
72404;SDS011;60395;52.020;113.548;2024-02-15T11:29:07;19.13;;;8.23;;
72404;SDS011;60395;52.020;113.548;2024-02-15T11:32:10;24.57;;;8.67;;
72404;SDS011;60395;52.020;113.548;2024-02-15T11:36:07;19.42;;;7.22;;
72404;SDS011;60395;52.020;113.548;2024-02-15T11:42:47;13.20;;;5.28;;
72404;SDS011;60395;52.020;113.548;2024-02-15T11:45:57;9.13;;;3.70;;
72404;SDS011;60395;52.020;113.548;2024-02-15T11:49:01;8.82;;;3.53;;
72404;SDS011;60395;52.020;113.548;2024-02-15T11:52:10;12.57;;;4.90;;
72404;SDS011;60395;52.020;113.548;2024-02-15T11:55:14;15.63;;;5.03;;
72404;SDS011;60395;52.020;113.548;2024-02-15T11:58:22;10.52;;;4.00;;
72404;SDS011;60395;52.020;113.548;2024-02-15T12:01:34;13.23;;;4.78;;
72404;SDS011;60395;52.020;113.548;2024-02-15T12:04:56;5.80;;;2.65;;
72404;SDS011;60395;52.020;113.548;2024-02-15T12:08:18;12.10;;;4.63;;
72404;SDS011;60395;52.020;113.548;2024-02-15T12:11:40;7.15;;;3.08;;
72404;SDS011;60395;52.020;113.548;2024-02-15T12:15:02;10.43;;;4.38;;
72404;SDS011;60395;52.020;113.548;2024-02-15T12:18:25;12.20;;;2.92;;
72404;SDS011;60395;52.020;113.548;2024-02-15T12:21:47;12.13;;;4.55;;
72404;SDS011;60395;52.020;113.548;2024-02-15T12:24:53;27.08;;;9.98;;
72404;SDS011;60395;52.020;113.548;2024-02-15T12:27:58;32.58;;;12.10;;
72404;SDS011;60395;52.020;113.548;2024-02-15T12:31:03;15.77;;;5.63;;
72404;SDS011;60395;52.020;113.548;2024-02-15T12:34:11;16.55;;;4.63;;
72404;SDS011;60395;52.020;113.548;2024-02-15T12:37:17;7.47;;;2.90;;
72404;SDS011;60395;52.020;113.548;2024-02-15T12:40:29;14.23;;;3.63;;
72404;SDS011;60395;52.020;113.548;2024-02-15T12:43:37;6.88;;;2.80;;
72404;SDS011;60395;52.020;113.548;2024-02-15T12:46:40;10.13;;;2.15;;
72404;SDS011;60395;52.020;113.548;2024-02-15T12:49:50;2.60;;;1.60;;
72404;SDS011;60395;52.020;113.548;2024-02-15T12:52:54;5.95;;;2.85;;
72404;SDS011;60395;52.020;113.548;2024-02-15T12:55:58;13.25;;;3.78;;
72404;SDS011;60395;52.020;113.548;2024-02-15T12:59:02;11.65;;;3.38;;
72404;SDS011;60395;52.020;113.548;2024-02-15T13:02:06;10.05;;;3.17;;
72404;SDS011;60395;52.020;113.548;2024-02-15T13:05:10;6.10;;;2.15;;
72404;SDS011;60395;52.020;113.548;2024-02-15T13:08:14;10.43;;;3.72;;
72404;SDS011;60395;52.020;113.548;2024-02-15T13:11:37;24.60;;;4.40;;
72404;SDS011;60395;52.020;113.548;2024-02-15T13:14:41;6.22;;;2.90;;
72404;SDS011;60395;52.020;113.548;2024-02-15T13:17:44;15.50;;;4.25;;
72404;SDS011;60395;52.020;113.548;2024-02-15T13:20:49;7.43;;;2.65;;
72404;SDS011;60395;52.020;113.548;2024-02-15T13:23:55;21.63;;;4.88;;
72404;SDS011;60395;52.020;113.548;2024-02-15T13:26:59;7.88;;;2.50;;
72404;SDS011;60395;52.020;113.548;2024-02-15T13:30:04;10.73;;;3.83;;
72404;SDS011;60395;52.020;113.548;2024-02-15T13:33:12;5.95;;;2.70;;
72404;SDS011;60395;52.020;113.548;2024-02-15T13:36:19;11.23;;;4.97;;
72404;SDS011;60395;52.020;113.548;2024-02-15T13:39:23;12.70;;;4.65;;
72404;SDS011;60395;52.020;113.548;2024-02-15T13:42:26;5.43;;;2.60;;
72404;SDS011;60395;52.020;113.548;2024-02-15T13:45:42;16.25;;;4.38;;
72404;SDS011;60395;52.020;113.548;2024-02-15T13:48:46;11.00;;;4.35;;
72404;SDS011;60395;52.020;113.548;2024-02-15T13:51:51;8.25;;;3.13;;
72404;SDS011;60395;52.020;113.548;2024-02-15T13:54:55;9.48;;;3.45;;
72404;SDS011;60395;52.020;113.548;2024-02-15T13:57:58;12.13;;;3.00;;
72404;SDS011;60395;52.020;113.548;2024-02-15T14:01:02;8.88;;;2.70;;
72404;SDS011;60395;52.020;113.548;2024-02-15T14:04:07;11.10;;;3.35;;
72404;SDS011;60395;52.020;113.548;2024-02-15T14:07:12;8.98;;;2.13;;
72404;SDS011;60395;52.020;113.548;2024-02-15T14:13:23;7.45;;;2.88;;
72404;SDS011;60395;52.020;113.548;2024-02-15T14:16:27;5.07;;;2.05;;
72404;SDS011;60395;52.020;113.548;2024-02-15T14:19:36;10.95;;;3.80;;
72404;SDS011;60395;52.020;113.548;2024-02-15T14:25:43;6.05;;;2.40;;
72404;SDS011;60395;52.020;113.548;2024-02-15T14:28:48;8.93;;;2.70;;
72404;SDS011;60395;52.020;113.548;2024-02-15T14:31:53;15.98;;;3.53;;
72404;SDS011;60395;52.020;113.548;2024-02-15T14:35:14;8.27;;;3.40;;
72404;SDS011;60395;52.020;113.548;2024-02-15T14:38:19;9.18;;;4.95;;
72404;SDS011;60395;52.020;113.548;2024-02-15T14:41:23;19.60;;;5.80;;
72404;SDS011;60395;52.020;113.548;2024-02-15T14:44:34;14.57;;;5.03;;
72404;SDS011;60395;52.020;113.548;2024-02-15T14:47:39;1.83;;;1.63;;
72404;SDS011;60395;52.020;113.548;2024-02-15T14:50:45;8.95;;;3.35;;
72404;SDS011;60395;52.020;113.548;2024-02-15T14:53:49;5.65;;;2.85;;
72404;SDS011;60395;52.020;113.548;2024-02-15T14:56:52;5.55;;;1.75;;
72404;SDS011;60395;52.020;113.548;2024-02-15T14:59:56;8.02;;;2.67;;
72404;SDS011;60395;52.020;113.548;2024-02-15T15:03:00;10.02;;;2.53;;
72404;SDS011;60395;52.020;113.548;2024-02-15T15:06:06;4.75;;;2.13;;
72404;SDS011;60395;52.020;113.548;2024-02-15T15:09:29;9.10;;;2.83;;
72404;SDS011;60395;52.020;113.548;2024-02-15T15:12:51;3.97;;;1.70;;
72404;SDS011;60395;52.020;113.548;2024-02-15T15:15:55;6.82;;;2.08;;
72404;SDS011;60395;52.020;113.548;2024-02-15T15:18:58;4.85;;;2.20;;
72404;SDS011;60395;52.020;113.548;2024-02-15T15:22:02;7.15;;;2.00;;
72404;SDS011;60395;52.020;113.548;2024-02-15T15:25:07;7.05;;;2.25;;
72404;SDS011;60395;52.020;113.548;2024-02-15T15:28:12;7.90;;;2.08;;
72404;SDS011;60395;52.020;113.548;2024-02-15T15:31:16;5.32;;;2.03;;
72404;SDS011;60395;52.020;113.548;2024-02-15T15:34:22;5.65;;;1.95;;
72404;SDS011;60395;52.020;113.548;2024-02-15T15:37:26;5.70;;;2.53;;
72404;SDS011;60395;52.020;113.548;2024-02-15T15:40:29;11.13;;;1.83;;
72404;SDS011;60395;52.020;113.548;2024-02-15T15:43:34;11.57;;;3.80;;
72404;SDS011;60395;52.020;113.548;2024-02-15T15:46:38;9.20;;;2.40;;
72404;SDS011;60395;52.020;113.548;2024-02-15T15:49:42;7.60;;;2.67;;
72404;SDS011;60395;52.020;113.548;2024-02-15T15:52:45;5.28;;;2.22;;
72404;SDS011;60395;52.020;113.548;2024-02-15T15:55:51;7.35;;;3.08;;
72404;SDS011;60395;52.020;113.548;2024-02-15T15:58:55;9.25;;;2.53;;
72404;SDS011;60395;52.020;113.548;2024-02-15T16:02:00;4.97;;;1.80;;
72404;SDS011;60395;52.020;113.548;2024-02-15T16:05:03;7.07;;;1.90;;
72404;SDS011;60395;52.020;113.548;2024-02-15T16:08:09;10.23;;;1.73;;
72404;SDS011;60395;52.020;113.548;2024-02-15T19:20:26;2.93;;;1.23;;
72404;SDS011;60395;52.020;113.548;2024-02-15T19:23:34;6.50;;;2.40;;
72404;SDS011;60395;52.020;113.548;2024-02-15T19:26:38;10.30;;;1.97;;
72404;SDS011;60395;52.020;113.548;2024-02-15T19:29:45;2.73;;;1.20;;
72404;SDS011;60395;52.020;113.548;2024-02-15T19:32:50;14.03;;;2.00;;
72404;SDS011;60395;52.020;113.548;2024-02-15T19:35:53;4.93;;;1.48;;
72404;SDS011;60395;52.020;113.548;2024-02-15T19:38:58;9.17;;;2.00;;
72404;SDS011;60395;52.020;113.548;2024-02-15T19:42:02;14.32;;;1.40;;
72404;SDS011;60395;52.020;113.548;2024-02-15T19:45:07;5.67;;;1.10;;
72404;SDS011;60395;52.020;113.548;2024-02-15T19:48:11;1.43;;;0.53;;
72404;SDS011;60395;52.020;113.548;2024-02-15T19:51:16;4.07;;;0.97;;
72404;SDS011;60395;52.020;113.548;2024-02-15T19:54:22;7.00;;;1.10;;
72404;SDS011;60395;52.020;113.548;2024-02-15T19:57:27;5.83;;;1.30;;
72404;SDS011;60395;52.020;113.548;2024-02-15T20:00:30;4.82;;;1.05;;
72404;SDS011;60395;52.020;113.548;2024-02-15T20:03:34;4.70;;;1.52;;
72404;SDS011;60395;52.020;113.548;2024-02-15T20:06:41;12.33;;;1.83;;
72404;SDS011;60395;52.020;113.548;2024-02-15T20:09:46;1.33;;;0.73;;
72404;SDS011;60395;52.020;113.548;2024-02-15T20:12:50;3.05;;;1.77;;
72404;SDS011;60395;52.020;113.548;2024-02-15T20:15:54;0.85;;;0.55;;
72404;SDS011;60395;52.020;113.548;2024-02-15T20:18:59;4.93;;;1.20;;
72404;SDS011;60395;52.020;113.548;2024-02-15T20:22:08;3.20;;;1.37;;
72404;SDS011;60395;52.020;113.548;2024-02-15T20:25:12;0.70;;;0.53;;
72404;SDS011;60395;52.020;113.548;2024-02-15T20:28:15;0.80;;;0.55;;
72404;SDS011;60395;52.020;113.548;2024-02-15T20:31:19;0.88;;;0.70;;
72404;SDS011;60395;52.020;113.548;2024-02-15T20:34:23;9.65;;;3.70;;
72404;SDS011;60395;52.020;113.548;2024-02-15T20:37:26;7.90;;;3.38;;
72404;SDS011;60395;52.020;113.548;2024-02-15T20:43:33;10.00;;;3.13;;
72404;SDS011;60395;52.020;113.548;2024-02-15T20:46:38;9.20;;;2.23;;
72404;SDS011;60395;52.020;113.548;2024-02-15T20:49:41;2.20;;;1.17;;
72404;SDS011;60395;52.020;113.548;2024-02-15T20:52:46;0.83;;;0.70;;
72404;SDS011;60395;52.020;113.548;2024-02-15T20:58:53;5.73;;;2.53;;
72404;SDS011;60395;52.020;113.548;2024-02-15T21:01:56;5.05;;;1.40;;
72404;SDS011;60395;52.020;113.548;2024-02-15T21:04:59;3.60;;;1.65;;
72404;SDS011;60395;52.020;113.548;2024-02-15T21:08:03;1.95;;;0.82;;
72404;SDS011;60395;52.020;113.548;2024-02-15T21:14:11;5.55;;;2.40;;
72404;SDS011;60395;52.020;113.548;2024-02-15T21:17:17;4.17;;;1.30;;
72404;SDS011;60395;52.020;113.548;2024-02-15T21:20:21;3.35;;;1.33;;
72404;SDS011;60395;52.020;113.548;2024-02-15T21:23:25;3.75;;;1.58;;
72404;SDS011;60395;52.020;113.548;2024-02-15T21:26:30;2.23;;;0.90;;
72404;SDS011;60395;52.020;113.548;2024-02-15T21:29:33;8.82;;;0.95;;
72404;SDS011;60395;52.020;113.548;2024-02-15T21:32:38;5.90;;;1.60;;
72404;SDS011;60395;52.020;113.548;2024-02-15T21:35:41;6.72;;;4.40;;
72404;SDS011;60395;52.020;113.548;2024-02-15T21:38:46;9.80;;;1.93;;
72404;SDS011;60395;52.020;113.548;2024-02-15T21:41:53;1.85;;;0.88;;
72404;SDS011;60395;52.020;113.548;2024-02-15T21:44:57;2.70;;;0.97;;
72404;SDS011;60395;52.020;113.548;2024-02-15T21:48:01;10.73;;;3.42;;
72404;SDS011;60395;52.020;113.548;2024-02-15T21:51:05;6.00;;;3.67;;
72404;SDS011;60395;52.020;113.548;2024-02-15T21:54:09;14.27;;;7.28;;
72404;SDS011;60395;52.020;113.548;2024-02-15T21:57:12;7.50;;;4.88;;